Time;durP1;ratioP1;P1;durP2;ratioP2;P2;SDS_P1;SDS_P2;PMS_P1;PMS_P2;Temp;Humidity;BMP_temperature;BMP_pressure;BME280_temperature;BME280_humidity;BME280_pressure;Samples;Min_cycle;Max_cycle;Signal;HPM_P1;HPM_P2
2024/01/22 00:00:50;;;;;;;7.33;3.40;;;8.40;99.90;;;;;;5016335;28;20033;-84
2024/01/22 00:03:17;;;;;;;8.93;3.67;;;8.40;99.90;;;;;;5014842;28;20109;-83
2024/01/22 00:05:43;;;;;;;9.23;3.00;;;8.40;99.90;;;;;;5016032;28;20132;-84
2024/01/22 00:08:10;;;;;;;7.60;3.43;;;8.40;99.90;;;;;;5016125;28;20478;-85
2024/01/22 00:10:36;;;;;;;9.37;3.10;;;8.40;99.90;;;;;;5016114;28;20033;-84
2024/01/22 00:13:02;;;;;;;7.40;3.07;;;8.50;99.90;;;;;;5014869;28;20474;-85
2024/01/22 00:15:27;;;;;;;6.70;2.73;;;8.50;99.90;;;;;;5016155;28;20485;-85
2024/01/22 00:17:53;;;;;;;10.93;3.90;;;8.50;99.90;;;;;;5016098;28;20132;-82
2024/01/22 00:20:19;;;;;;;10.33;3.57;;;8.60;99.90;;;;;;5016076;28;20030;-85
2024/01/22 00:22:44;;;;;;;6.53;3.00;;;8.60;99.90;;;;;;5015574;28;20037;-83
2024/01/22 00:25:10;;;;;;;7.83;3.67;;;8.60;99.90;;;;;;5015785;28;20543;-85
2024/01/22 00:27:36;;;;;;;8.57;3.57;;;8.70;99.90;;;;;;5015551;28;20095;-85
2024/01/22 00:30:01;;;;;;;6.83;3.23;;;8.70;99.90;;;;;;5014597;28;20022;-85
2024/01/22 00:32:27;;;;;;;10.33;3.67;;;8.70;99.90;;;;;;5030572;28;20029;-85
2024/01/22 00:34:52;;;;;;;10.27;3.30;;;8.70;99.90;;;;;;5015747;28;20045;-83
2024/01/22 00:37:18;;;;;;;7.30;3.50;;;8.80;99.90;;;;;;5014065;28;20203;-84
2024/01/22 00:39:43;;;;;;;10.07;3.53;;;8.80;99.90;;;;;;5015479;28;20038;-84
2024/01/22 00:42:09;;;;;;;10.83;3.80;;;8.80;99.90;;;;;;5015277;28;20030;-83
2024/01/22 00:44:35;;;;;;;5.77;3.07;;;8.80;99.90;;;;;;5015447;28;20037;-84
2024/01/22 00:47:01;;;;;;;5.90;2.67;;;8.90;99.90;;;;;;5015221;28;20509;-84
2024/01/22 00:49:26;;;;;;;6.37;3.17;;;8.90;99.90;;;;;;5014273;28;20020;-85
2024/01/22 00:51:52;;;;;;;9.23;3.77;;;8.90;99.90;;;;;;5015162;28;20385;-85
2024/01/22 00:54:17;;;;;;;7.60;3.17;;;8.90;99.90;;;;;;5014184;28;20025;-85
2024/01/22 00:56:43;;;;;;;7.60;3.03;;;8.90;99.90;;;;;;5015530;28;20025;-83
2024/01/22 00:59:09;;;;;;;9.40;3.20;;;9.00;99.90;;;;;;5015644;28;20462;-84
2024/01/22 01:01:34;;;;;;;7.07;2.90;;;9.00;99.90;;;;;;5013794;28;20049;-85
2024/01/22 01:04:00;;;;;;;7.27;3.00;;;9.00;99.90;;;;;;5013691;28;20397;-84
2024/01/22 01:06:26;;;;;;;8.97;3.17;;;9.00;99.90;;;;;;5014841;28;20514;-83
2024/01/22 01:08:51;;;;;;;7.97;2.90;;;9.10;99.90;;;;;;5022908;28;20125;-83
2024/01/22 01:11:17;;;;;;;9.07;3.20;;;9.10;99.90;;;;;;5033430;28;20061;-85
2024/01/22 01:13:43;;;;;;;7.10;2.80;;;9.10;99.90;;;;;;5033552;28;20022;-85
2024/01/22 01:16:08;;;;;;;7.63;2.80;;;9.10;99.90;;;;;;5033112;28;20021;-84
2024/01/22 01:18:34;;;;;;;8.97;3.13;;;9.20;99.90;;;;;;5034469;28;20033;-84
2024/01/22 01:20:59;;;;;;;10.10;3.27;;;9.20;99.90;;;;;;5033283;28;20022;-86
2024/01/22 01:23:25;;;;;;;7.00;2.70;;;9.20;99.90;;;;;;5034636;28;20052;-85
2024/01/22 01:25:51;;;;;;;6.77;2.40;;;9.30;99.90;;;;;;5034604;28;20025;-83
2024/01/22 01:28:16;;;;;;;9.37;2.63;;;9.30;99.90;;;;;;5032848;28;20116;-84
2024/01/22 01:30:42;;;;;;;6.17;3.00;;;9.30;99.90;;;;;;5033063;28;20104;-85
2024/01/22 01:33:07;;;;;;;8.30;2.30;;;9.40;99.90;;;;;;5033911;28;20025;-86
2024/01/22 01:35:33;;;;;;;7.97;2.80;;;9.40;99.90;;;;;;5032941;28;20027;-84
2024/01/22 01:37:59;;;;;;;5.27;1.97;;;9.40;99.90;;;;;;5032744;28;20053;-86
2024/01/22 01:40:24;;;;;;;4.97;2.30;;;9.50;99.90;;;;;;5032734;28;20072;-83
2024/01/22 01:42:50;;;;;;;4.87;2.20;;;9.50;99.90;;;;;;5033928;28;20017;-84
2024/01/22 01:45:15;;;;;;;5.43;2.10;;;9.50;99.90;;;;;;5034130;28;20037;-85
2024/01/22 01:47:50;;;;;;;6.07;1.93;;;9.50;99.90;;;;;;5034111;28;20029;-84
2024/01/22 01:50:17;;;;;;;8.63;2.50;;;9.60;99.90;;;;;;5033907;28;20101;-85
2024/01/22 01:52:43;;;;;;;6.20;2.20;;;9.60;99.90;;;;;;5032247;28;20040;-84
2024/01/22 01:55:10;;;;;;;6.47;2.23;;;9.50;99.90;;;;;;5032476;28;20112;-84
2024/01/22 01:57:39;;;;;;;7.23;2.47;;;9.60;99.90;;;;;;5034076;28;20029;-87
2024/01/22 02:00:06;;;;;;;5.20;2.00;;;9.60;99.90;;;;;;5032557;28;20072;-85
2024/01/22 02:02:32;;;;;;;8.67;2.33;;;9.60;99.90;;;;;;5032949;28;20064;-83
2024/01/22 02:04:58;;;;;;;7.83;2.50;;;9.60;99.90;;;;;;5032332;28;20061;-85
2024/01/22 02:07:24;;;;;;;8.00;2.80;;;9.50;99.90;;;;;;5033643;28;20026;-84
2024/01/22 02:09:52;;;;;;;8.23;2.53;;;9.50;99.90;;;;;;5033380;28;20018;-86
2024/01/22 02:12:18;;;;;;;4.23;1.90;;;9.50;99.90;;;;;;5033685;28;20017;-81
2024/01/22 02:14:46;;;;;;;4.03;2.07;;;9.40;99.90;;;;;;5033672;28;20025;-83
2024/01/22 02:17:11;;;;;;;6.00;2.03;;;9.40;99.90;;;;;;5033390;28;20021;-83
2024/01/22 02:19:37;;;;;;;6.37;1.80;;;9.50;99.90;;;;;;5032024;28;20029;-82
2024/01/22 02:22:03;;;;;;;4.20;1.73;;;9.50;99.90;;;;;;5033661;28;20079;-82
2024/01/22 02:24:29;;;;;;;6.10;2.30;;;9.50;99.90;;;;;;5033445;28;20033;-82
2024/01/22 02:26:54;;;;;;;5.03;1.97;;;9.50;99.90;;;;;;5032212;28;20049;-83
2024/01/22 02:29:20;;;;;;;7.27;2.00;;;9.50;99.90;;;;;;5032183;28;20060;-84
2024/01/22 02:31:50;;;;;;;6.47;1.90;;;9.60;99.90;;;;;;5031783;28;20029;-83
2024/01/22 02:34:16;;;;;;;3.87;1.87;;;9.60;99.90;;;;;;5033217;28;20108;-84
2024/01/22 02:36:42;;;;;;;7.27;2.27;;;9.70;99.90;;;;;;5032138;28;20527;-84
2024/01/22 02:39:07;;;;;;;5.90;1.80;;;9.70;99.90;;;;;;5032055;28;20037;-83
2024/01/22 02:41:33;;;;;;;3.33;1.30;;;9.70;99.90;;;;;;5033624;28;20037;-82
2024/01/22 02:43:58;;;;;;;5.53;1.57;;;9.80;99.90;;;;;;5033446;28;20470;-84
2024/01/22 02:46:27;;;;;;;4.07;1.50;;;9.80;99.90;;;;;;5031707;28;20029;-84
2024/01/22 02:48:52;;;;;;;5.57;1.47;;;9.90;99.90;;;;;;5033729;28;20112;-83
2024/01/22 02:51:18;;;;;;;5.93;1.83;;;9.90;99.90;;;;;;5032102;28;20107;-84
2024/01/22 02:53:44;;;;;;;5.87;1.83;;;9.90;99.90;;;;;;5031720;28;20548;-84
2024/01/22 02:56:10;;;;;;;3.87;1.50;;;9.80;99.90;;;;;;5031953;28;20532;-84
2024/01/22 02:58:36;;;;;;;5.43;2.13;;;9.60;99.90;;;;;;5031865;28;20026;-84
2024/01/22 03:01:01;;;;;;;5.13;2.00;;;9.40;99.90;;;;;;5033119;28;20128;-83
2024/01/22 03:03:27;;;;;;;5.23;2.40;;;9.30;99.90;;;;;;5031512;28;20029;-84
2024/01/22 03:05:52;;;;;;;7.37;2.57;;;9.20;99.90;;;;;;5031672;28;20022;-84
2024/01/22 03:08:18;;;;;;;6.37;2.70;;;9.20;99.90;;;;;;5032858;28;20111;-83
2024/01/22 03:10:45;;;;;;;7.27;2.37;;;9.10;99.90;;;;;;5032848;28;20029;-85
2024/01/22 03:13:11;;;;;;;6.80;2.67;;;9.00;99.90;;;;;;5033160;28;20515;-83
2024/01/22 03:15:37;;;;;;;6.07;2.70;;;9.00;99.90;;;;;;5035545;28;20056;-82
2024/01/22 03:18:02;;;;;;;5.03;2.03;;;9.00;99.90;;;;;;5036833;28;20018;-83
2024/01/22 03:20:28;;;;;;;6.37;3.07;;;9.00;99.90;;;;;;5035326;28;20245;-84
2024/01/22 03:22:54;;;;;;;5.40;2.70;;;9.00;99.90;;;;;;5036585;28;20044;-85
2024/01/22 03:25:19;;;;;;;9.37;2.63;;;9.00;99.90;;;;;;5036535;28;20376;-83
2024/01/22 03:27:45;;;;;;;6.67;2.40;;;9.00;99.90;;;;;;5036396;28;20041;-84
2024/01/22 03:30:11;;;;;;;5.93;2.70;;;9.00;99.90;;;;;;5036595;28;20076;-84
2024/01/22 03:32:37;;;;;;;5.83;2.53;;;9.00;99.90;;;;;;5034990;28;20030;-83
2024/01/22 03:35:03;;;;;;;7.00;3.07;;;9.00;99.90;;;;;;5036400;28;20359;-82
2024/01/22 03:37:28;;;;;;;4.43;2.50;;;9.00;99.90;;;;;;5036241;28;20385;-84
2024/01/22 03:39:54;;;;;;;6.47;2.50;;;9.10;99.90;;;;;;5035243;28;20021;-83
2024/01/22 03:42:20;;;;;;;6.57;2.67;;;9.10;99.90;;;;;;5036348;28;20022;-83
2024/01/22 03:44:46;;;;;;;6.57;2.37;;;9.10;99.90;;;;;;5034981;28;20030;-83
2024/01/22 03:47:11;;;;;;;7.87;2.77;;;9.10;99.90;;;;;;5036188;28;20379;-82
2024/01/22 03:49:37;;;;;;;6.40;2.00;;;9.20;99.90;;;;;;5036280;28;20354;-83
2024/01/22 03:52:03;;;;;;;5.63;1.77;;;9.30;99.90;;;;;;5036321;28;20026;-84
2024/01/22 03:54:28;;;;;;;6.03;2.13;;;9.20;99.90;;;;;;5036034;28;20083;-84
2024/01/22 03:56:54;;;;;;;6.97;2.90;;;9.30;99.90;;;;;;5034711;28;20021;-82
2024/01/22 03:59:19;;;;;;;5.87;1.90;;;9.30;99.90;;;;;;5036059;28;20025;-84
2024/01/22 04:01:45;;;;;;;4.57;2.40;;;9.30;99.90;;;;;;5034142;28;20384;-84
2024/01/22 04:04:12;;;;;;;4.67;2.03;;;9.30;99.90;;;;;;5035705;28;20025;-83
2024/01/22 04:06:37;;;;;;;6.90;2.53;;;9.30;99.90;;;;;;5035767;28;20489;-83
2024/01/22 04:09:03;;;;;;;7.47;2.00;;;9.30;99.90;;;;;;5035013;28;20021;-83
2024/01/22 04:11:29;;;;;;;5.40;2.47;;;9.30;99.90;;;;;;5035689;28;20151;-84
2024/01/22 04:13:54;;;;;;;4.90;2.20;;;9.30;99.90;;;;;;5035774;28;20030;-83
2024/01/22 04:16:20;;;;;;;5.83;2.30;;;9.30;99.90;;;;;;5035711;28;20108;-83
2024/01/22 04:18:46;;;;;;;5.80;2.27;;;9.30;99.90;;;;;;5035788;28;20539;-82
2024/01/22 04:21:12;;;;;;;5.87;2.37;;;9.40;99.90;;;;;;5035423;28;20029;-82
2024/01/22 04:23:37;;;;;;;5.60;2.20;;;9.30;99.90;;;;;;5034167;28;20025;-83
2024/01/22 04:26:04;;;;;;;8.27;2.23;;;9.40;99.90;;;;;;5034193;28;20508;-86
2024/01/22 04:28:30;;;;;;;3.60;2.07;;;9.30;99.90;;;;;;5035992;28;20041;-85
2024/01/22 04:30:56;;;;;;;6.07;2.50;;;9.40;99.90;;;;;;5036099;28;20406;-85
2024/01/22 04:33:21;;;;;;;4.70;2.00;;;9.40;99.90;;;;;;5035194;28;20087;-83
2024/01/22 04:35:49;;;;;;;4.40;2.07;;;9.40;99.90;;;;;;5035510;28;20021;-85
2024/01/22 04:38:15;;;;;;;4.67;1.80;;;9.40;99.90;;;;;;5035289;28;20025;-83
2024/01/22 04:40:41;;;;;;;4.73;1.50;;;9.50;99.90;;;;;;5034996;28;20022;-83
2024/01/22 04:43:06;;;;;;;5.77;2.20;;;9.50;99.90;;;;;;5035268;28;20493;-83
2024/01/22 04:45:32;;;;;;;4.40;1.90;;;9.50;99.90;;;;;;5033825;28;20112;-84
2024/01/22 04:47:58;;;;;;;4.33;2.23;;;9.60;99.90;;;;;;5034994;28;20029;-83
2024/01/22 04:50:24;;;;;;;6.20;2.10;;;9.60;99.90;;;;;;5033763;28;20049;-84
2024/01/22 04:52:49;;;;;;;6.03;2.23;;;9.60;99.90;;;;;;5033991;28;20025;-84
2024/01/22 04:55:15;;;;;;;4.57;1.90;;;9.70;99.90;;;;;;5034923;28;20022;-82
2024/01/22 04:57:41;;;;;;;5.47;2.10;;;9.70;99.90;;;;;;5033685;28;20076;-83
2024/01/22 05:00:07;;;;;;;5.47;1.90;;;9.70;99.90;;;;;;5034668;28;20044;-83
2024/01/22 05:02:33;;;;;;;8.93;1.50;;;9.70;99.90;;;;;;5033554;28;20021;-82
2024/01/22 05:05:00;;;;;;;6.97;2.23;;;9.80;99.90;;;;;;5033421;28;20047;-82
2024/01/22 05:07:26;;;;;;;3.90;1.50;;;9.80;99.90;;;;;;5034772;28;20021;-84
2024/01/22 05:10:04;;;;;;;6.43;1.63;;;9.80;99.90;;;;;;5033390;28;20034;-83
2024/01/22 05:12:30;;;;;;;6.10;1.80;;;9.80;99.90;;;;;;5034654;28;20018;-83
2024/01/22 05:14:56;;;;;;;4.37;2.33;;;9.80;99.90;;;;;;5033390;28;20036;-84
2024/01/22 05:17:22;;;;;;;3.23;1.40;;;9.80;99.90;;;;;;5033215;28;20090;-83
2024/01/22 05:19:48;;;;;;;4.60;1.93;;;9.80;99.90;;;;;;5033248;28;20026;-83
2024/01/22 05:22:14;;;;;;;4.83;1.57;;;9.90;99.90;;;;;;5034466;28;20473;-82
2024/01/22 05:24:40;;;;;;;4.63;1.50;;;9.90;99.90;;;;;;5032884;28;20030;-81
2024/01/22 05:27:08;;;;;;;9.20;2.23;;;9.90;99.90;;;;;;5034177;28;20116;-83
2024/01/22 05:29:33;;;;;;;4.33;1.70;;;9.90;99.90;;;;;;5034709;28;20049;-83
2024/01/22 05:32:01;;;;;;;8.47;1.83;;;10.00;99.90;;;;;;5033939;28;20029;-82
2024/01/22 05:34:26;;;;;;;5.37;1.70;;;9.90;99.90;;;;;;5033080;28;20120;-82
2024/01/22 05:36:52;;;;;;;2.97;1.23;;;10.00;99.90;;;;;;5033941;28;20108;-83
2024/01/22 05:39:18;;;;;;;4.53;1.50;;;10.10;99.90;;;;;;5033692;28;20433;-81
2024/01/22 05:41:43;;;;;;;2.97;1.10;;;10.10;99.90;;;;;;5032832;28;20263;-84
2024/01/22 05:44:09;;;;;;;5.73;1.13;;;10.10;99.90;;;;;;5032679;28;20453;-83
2024/01/22 05:46:35;;;;;;;2.93;1.13;;;10.20;99.90;;;;;;5026228;28;20174;-84
2024/01/22 05:49:00;;;;;;;5.53;1.30;;;10.20;99.90;;;;;;5033997;28;20381;-82
2024/01/22 05:51:26;;;;;;;4.33;1.13;;;10.30;99.90;;;;;;5031793;28;20384;-82
2024/01/22 05:53:51;;;;;;;3.20;1.00;;;10.30;99.90;;;;;;5032527;28;20104;-82
2024/01/22 05:56:27;;;;;;;5.13;1.10;;;10.30;99.90;;;;;;5033962;28;20469;-82
2024/01/22 05:58:54;;;;;;;3.00;1.00;;;10.40;99.90;;;;;;5032920;28;20029;-82
2024/01/22 06:01:26;;;;;;;2.57;0.80;;;10.40;99.90;;;;;;5033991;28;20022;-83
2024/01/22 06:03:52;;;;;;;4.93;0.90;;;10.40;99.90;;;;;;5033339;28;20038;-83
2024/01/22 06:06:19;;;;;;;5.27;0.87;;;10.40;99.90;;;;;;5033744;28;20079;-84
2024/01/22 06:08:45;;;;;;;3.50;0.70;;;10.50;99.90;;;;;;5034039;28;20446;-82
2024/01/22 06:11:12;;;;;;;2.30;0.70;;;10.50;99.90;;;;;;5033325;28;20022;-83
2024/01/22 06:13:44;;;;;;;4.28;0.80;;;10.60;99.90;;;;;;5033962;28;20030;-83
2024/01/22 06:16:14;;;;;;;3.08;0.70;;;10.60;99.90;;;;;;5019299;28;20096;-82
2024/01/22 06:18:41;;;;;;;2.63;0.52;;;10.60;99.90;;;;;;5032685;28;20021;-82
2024/01/22 06:21:08;;;;;;;2.05;0.57;;;10.70;99.90;;;;;;5033387;28;20022;-85
2024/01/22 06:23:34;;;;;;;6.00;1.40;;;10.80;99.90;;;;;;5032894;28;20093;-83
2024/01/22 06:26:00;;;;;;;3.85;0.50;;;10.80;99.90;;;;;;5031835;28;20440;-82
2024/01/22 06:28:28;;;;;;;3.35;0.50;;;10.90;99.90;;;;;;5031981;28;20042;-83
2024/01/22 06:30:54;;;;;;;3.55;0.50;;;10.90;99.90;;;;;;5031597;28;20432;-83
2024/01/22 06:33:21;;;;;;;1.52;0.60;;;10.90;99.90;;;;;;5031439;28;20087;-84
2024/01/22 06:35:47;;;;;;;4.82;0.55;;;10.90;99.90;;;;;;5033439;28;20021;-83
2024/01/22 06:38:17;;;;;;;2.10;0.30;;;11.00;99.90;;;;;;5031865;28;20064;-82
2024/01/22 06:40:44;;;;;;;2.38;0.40;;;11.00;99.90;;;;;;5031867;28;20100;-82
2024/01/22 06:43:10;;;;;;;2.63;0.40;;;11.10;99.90;;;;;;5032450;28;20449;-83
2024/01/22 06:45:36;;;;;;;3.47;0.70;;;11.10;99.90;;;;;;5031188;28;20036;-81
2024/01/22 06:48:02;;;;;;;3.67;1.02;;;11.10;99.90;;;;;;5032334;28;20108;-83
2024/01/22 06:50:27;;;;;;;4.38;0.60;;;11.10;99.90;;;;;;5031079;28;20033;-82
2024/01/22 06:52:53;;;;;;;4.03;0.70;;;11.10;99.90;;;;;;5033318;28;20026;-83
2024/01/22 06:55:19;;;;;;;3.15;0.40;;;11.10;99.90;;;;;;5031703;28;20021;-80
2024/01/22 06:57:46;;;;;;;1.65;0.35;;;11.10;99.90;;;;;;5032841;28;20378;-82
2024/01/22 07:00:15;;;;;;;5.57;0.70;;;11.10;99.90;;;;;;5031399;28;20040;-83
2024/01/22 07:02:43;;;;;;;4.60;0.60;;;11.00;99.90;;;;;;5031476;28;20047;-81
2024/01/22 07:05:10;;;;;;;6.15;0.60;;;11.00;99.90;;;;;;5031190;28;20037;-83
2024/01/22 07:07:37;;;;;;;2.33;0.60;;;11.00;99.90;;;;;;5032826;28;20066;-81
2024/01/22 07:10:05;;;;;;;2.80;0.60;;;11.00;99.90;;;;;;5021783;28;20026;-81
2024/01/22 07:12:32;;;;;;;4.10;0.65;;;11.00;99.90;;;;;;5022921;28;20093;-81
2024/01/22 07:14:57;;;;;;;1.73;0.50;;;10.90;99.90;;;;;;5021095;28;20113;-79
2024/01/22 07:17:23;;;;;;;3.85;0.82;;;10.90;99.90;;;;;;5019380;28;20026;-80
2024/01/22 07:19:49;;;;;;;6.05;0.80;;;10.90;99.90;;;;;;5016458;28;20097;-80
2024/01/22 07:22:14;;;;;;;4.43;0.82;;;10.90;99.90;;;;;;5022604;28;20013;-81
2024/01/22 07:24:40;;;;;;;3.75;0.60;;;10.80;99.90;;;;;;5020536;28;20053;-79
2024/01/22 07:27:06;;;;;;;6.45;0.70;;;10.90;99.90;;;;;;5022768;28;20057;-80
2024/01/22 07:29:31;;;;;;;7.43;1.25;;;10.80;99.90;;;;;;5020814;28;20038;-80
2024/01/22 07:31:57;;;;;;;8.70;1.15;;;10.80;99.90;;;;;;5020968;28;20013;-80
2024/01/22 07:34:23;;;;;;;4.90;0.95;;;10.80;99.90;;;;;;5021335;28;20474;-81
2024/01/22 07:36:50;;;;;;;9.48;1.67;;;10.90;99.90;;;;;;5021092;28;20076;-82
2024/01/22 07:39:15;;;;;;;8.55;1.08;;;10.90;99.90;;;;;;5023266;28;20018;-81
2024/01/22 07:41:41;;;;;;;10.45;1.50;;;10.90;99.90;;;;;;5031030;28;20488;-81
2024/01/22 07:44:07;;;;;;;11.05;1.38;;;10.90;99.90;;;;;;5032256;28;20107;-81
2024/01/22 07:46:33;;;;;;;9.88;1.05;;;10.90;99.90;;;;;;5032527;28;20358;-80
2024/01/22 07:48:58;;;;;;;10.25;1.10;;;11.00;99.90;;;;;;5028047;28;20523;-80
2024/01/22 07:51:24;;;;;;;8.95;1.00;;;11.00;99.90;;;;;;5020750;28;20033;-80
2024/01/22 07:53:50;;;;;;;6.78;1.00;;;11.00;99.90;;;;;;5025010;28;20098;-80
2024/01/22 07:56:17;;;;;;;8.75;1.02;;;11.00;99.90;;;;;;5020535;28;20500;-81
2024/01/22 07:58:44;;;;;;;9.85;0.90;;;11.00;99.90;;;;;;5012175;28;20053;-81
2024/01/22 08:01:09;;;;;;;10.98;1.10;;;11.00;99.90;;;;;;5014459;28;20470;-81
2024/01/22 08:03:35;;;;;;;8.82;1.33;;;11.10;99.90;;;;;;5014679;28;20029;-83
2024/01/22 08:06:01;;;;;;;7.55;1.15;;;11.10;99.90;;;;;;5016118;28;20097;-82
2024/01/22 08:08:30;;;;;;;10.90;1.75;;;11.10;99.90;;;;;;5019632;28;20025;-81
2024/01/22 08:10:56;;;;;;;6.65;1.00;;;11.10;99.90;;;;;;5026958;28;20057;-82
2024/01/22 08:13:22;;;;;;;10.63;1.30;;;11.10;99.90;;;;;;5024746;28;20116;-81
2024/01/22 08:15:48;;;;;;;10.00;1.17;;;11.10;99.90;;;;;;5024526;28;20137;-82
2024/01/22 08:18:14;;;;;;;11.88;1.30;;;11.10;99.90;;;;;;5021409;28;20120;-81
2024/01/22 08:20:41;;;;;;;10.05;1.45;;;11.10;99.90;;;;;;5014460;28;20470;-83
2024/01/22 08:23:07;;;;;;;11.00;1.20;;;11.10;99.90;;;;;;5015124;28;20026;-82
2024/01/22 08:25:33;;;;;;;9.90;1.38;;;11.10;99.90;;;;;;5015511;28;20034;-81
2024/01/22 08:27:59;;;;;;;11.77;2.05;;;11.10;99.90;;;;;;5015595;28;20049;-81
2024/01/22 08:30:26;;;;;;;10.13;1.20;;;11.10;99.90;;;;;;5015526;28;20503;-81
2024/01/22 08:32:51;;;;;;;8.80;1.38;;;11.10;99.90;;;;;;5015291;28;20056;-83
2024/01/22 08:35:21;;;;;;;10.35;1.40;;;11.10;99.90;;;;;;5015393;28;20045;-82
2024/01/22 08:37:52;;;;;;;9.30;1.45;;;11.00;99.90;;;;;;5015532;28;20501;-81
2024/01/22 08:40:21;;;;;;;7.90;1.48;;;11.10;99.90;;;;;;5015415;28;20018;-83
2024/01/22 08:42:54;;;;;;;10.90;1.65;;;11.10;99.90;;;;;;5015108;28;20026;-80
2024/01/22 08:45:21;;;;;;;10.07;1.38;;;11.10;99.90;;;;;;5015442;28;20489;-82
2024/01/22 08:47:49;;;;;;;8.30;1.58;;;11.10;99.90;;;;;;5014030;28;20080;-81
2024/01/22 08:50:19;;;;;;;8.05;1.17;;;11.10;99.90;;;;;;5015105;28;20034;-82
2024/01/22 08:52:49;;;;;;;11.82;1.80;;;11.10;99.90;;;;;;5014742;28;20057;-81
2024/01/22 08:55:16;;;;;;;6.72;1.10;;;11.10;99.90;;;;;;5017135;28;20156;-85
2024/01/22 08:57:42;;;;;;;12.60;2.15;;;11.10;99.90;;;;;;5014824;28;20030;-81
2024/01/22 09:00:11;;;;;;;9.95;2.22;;;11.10;99.90;;;;;;5014922;28;20045;-81
2024/01/22 09:02:42;;;;;;;9.52;1.52;;;11.10;99.90;;;;;;5013805;28;20022;-83
2024/01/22 09:05:09;;;;;;;10.27;2.10;;;11.10;99.90;;;;;;5013442;28;20034;-84
2024/01/22 09:07:36;;;;;;;12.18;2.30;;;11.10;99.90;;;;;;5014415;28;20040;-81
2024/01/22 09:10:06;;;;;;;16.23;2.55;;;11.10;99.90;;;;;;5014733;28;20018;-81
2024/01/22 09:12:35;;;;;;;19.83;2.28;;;11.10;99.90;;;;;;5022043;28;20122;-81
2024/01/22 09:15:03;;;;;;;12.80;1.98;;;11.20;99.90;;;;;;5022200;28;20202;-83
2024/01/22 09:17:29;;;;;;;11.05;2.33;;;11.10;99.90;;;;;;5023367;28;20025;-84
2024/01/22 09:19:55;;;;;;;9.77;2.17;;;11.20;99.90;;;;;;5025040;28;20049;-83
2024/01/22 09:22:21;;;;;;;16.20;2.72;;;11.20;99.90;;;;;;5027826;28;20477;-82
2024/01/22 09:24:47;;;;;;;13.05;2.13;;;11.20;99.90;;;;;;5023082;28;20025;-83
2024/01/22 09:27:14;;;;;;;18.58;2.65;;;11.20;99.90;;;;;;5017729;28;20100;-82
2024/01/22 09:29:41;;;;;;;14.77;2.10;;;11.10;99.90;;;;;;5016614;28;20022;-82
2024/01/22 09:32:07;;;;;;;12.00;2.35;;;11.20;99.90;;;;;;5014005;28;20080;-82
2024/01/22 09:34:33;;;;;;;13.15;1.58;;;11.10;99.90;;;;;;5014155;28;20025;-83
2024/01/22 09:36:59;;;;;;;11.07;2.28;;;11.10;99.90;;;;;;5014276;28;20080;-82
2024/01/22 09:39:24;;;;;;;18.55;2.58;;;11.10;99.90;;;;;;5019765;28;20104;-83
2024/01/22 09:41:51;;;;;;;10.48;2.30;;;11.00;99.90;;;;;;5033639;28;20029;-87
2024/01/22 09:44:17;;;;;;;20.20;2.22;;;10.90;99.90;;;;;;5032481;28;20068;-83
2024/01/22 09:46:45;;;;;;;18.03;2.03;;;10.70;99.90;;;;;;5032658;28;20063;-82
2024/01/22 09:49:11;;;;;;;16.90;1.88;;;10.40;99.90;;;;;;5034110;28;20036;-85
2024/01/22 09:51:41;;;;;;;17.27;1.60;;;10.20;99.90;;;;;;5034018;28;20026;-85
2024/01/22 09:54:18;;;;;;;17.47;2.00;;;10.00;99.90;;;;;;5024767;28;20384;-83
2024/01/22 09:56:51;;;;;;;13.73;1.53;;;9.90;99.90;;;;;;5021539;28;20029;-83
2024/01/22 09:59:19;;;;;;;12.88;1.75;;;9.80;99.90;;;;;;5030444;28;20025;-86
2024/01/22 10:01:48;;;;;;;12.33;1.73;;;9.70;99.90;;;;;;5032422;28;20037;-82
2024/01/22 10:04:14;;;;;;;13.23;1.90;;;9.70;99.90;;;;;;5033874;28;20197;-83
2024/01/22 10:06:40;;;;;;;12.03;1.87;;;9.60;99.90;;;;;;5033511;28;20028;-84
2024/01/22 10:09:06;;;;;;;20.77;2.10;;;9.60;99.90;;;;;;5030794;28;20044;-82
2024/01/22 10:11:32;;;;;;;14.87;1.33;;;9.50;99.90;;;;;;5036631;28;20458;-87
2024/01/22 10:13:58;;;;;;;13.97;1.53;;;9.50;99.90;;;;;;5034245;28;20152;-84
2024/01/22 10:16:31;;;;;;;25.07;1.90;;;9.40;99.90;;;;;;5033492;28;20033;-83
2024/01/22 10:19:04;;;;;;;21.87;2.43;;;9.40;99.90;;;;;;5032355;28;20033;-83
2024/01/22 10:21:30;;;;;;;11.63;2.00;;;9.40;99.90;;;;;;5033356;28;20030;-83
2024/01/22 10:23:57;;;;;;;17.00;2.10;;;9.30;99.90;;;;;;5019852;28;20096;-83
2024/01/22 10:26:22;;;;;;;10.93;1.83;;;9.30;99.90;;;;;;5028787;28;20067;-83
2024/01/22 10:28:48;;;;;;;19.10;2.30;;;9.30;99.90;;;;;;5032487;28;20041;-83
2024/01/22 10:31:14;;;;;;;22.93;2.83;;;9.30;99.90;;;;;;5031525;28;20022;-83
2024/01/22 10:33:39;;;;;;;22.20;2.40;;;9.30;99.90;;;;;;5032373;28;20093;-83
2024/01/22 10:36:19;;;;;;;23.17;3.07;;;9.30;99.90;;;;;;5032341;28;20049;-83
2024/01/22 10:38:46;;;;;;;21.20;2.37;;;9.30;99.90;;;;;;5053718;28;20057;-83
2024/01/22 10:41:17;;;;;;;23.47;2.60;;;9.30;99.90;;;;;;5032802;28;20032;-82
2024/01/22 10:43:43;;;;;;;19.77;2.30;;;9.30;99.90;;;;;;5031723;28;20026;-85
2024/01/22 10:46:11;;;;;;;20.37;2.00;;;9.30;99.90;;;;;;5031627;28;20022;-83
2024/01/22 10:48:37;;;;;;;15.73;2.93;;;9.30;99.90;;;;;;5026783;28;20075;-82
2024/01/22 10:51:06;;;;;;;20.93;2.17;;;9.30;99.90;;;;;;5021756;28;20025;-82
2024/01/22 10:53:33;;;;;;;19.67;3.03;;;9.30;99.90;;;;;;5028529;28;20125;-83
2024/01/22 10:56:11;;;;;;;21.47;2.50;;;9.30;99.90;;;;;;5024346;28;20501;-83
2024/01/22 10:58:44;;;;;;;23.67;2.50;;;9.30;99.90;;;;;;5032523;28;20029;-83
2024/01/22 11:01:15;;;;;;;31.67;3.80;;;9.30;99.90;;;;;;5033173;28;20021;-83
2024/01/22 11:03:49;;;;;;;26.23;3.30;;;9.30;99.90;;;;;;5032809;28;20022;-83
2024/01/22 11:06:20;;;;;;;32.88;4.13;;;9.30;99.90;;;;;;5033024;28;20087;-84
2024/01/22 11:08:55;;;;;;;32.03;4.10;;;9.30;99.90;;;;;;5033137;28;20021;-84
2024/01/22 11:11:25;;;;;;;21.33;3.83;;;9.30;99.90;;;;;;5032582;28;20036;-83
2024/01/22 11:13:56;;;;;;;23.93;4.93;;;9.30;99.90;;;;;;5032571;28;20029;-83
2024/01/22 11:16:22;;;;;;;24.47;3.87;;;9.40;99.90;;;;;;5032630;28;20108;-84
2024/01/22 11:19:02;;;;;;;31.87;4.40;;;9.50;99.90;;;;;;5032687;28;20033;-84
2024/01/22 11:21:37;;;;;;;40.43;4.67;;;9.60;99.90;;;;;;5032999;28;20159;-84
2024/01/22 11:24:13;;;;;;;32.87;5.10;;;9.60;99.90;;;;;;5031666;28;20029;-84
2024/01/22 11:27:03;;;;;;;31.57;4.23;;;9.60;99.90;;;;;;5031197;28;20033;-82
2024/01/22 11:29:30;;;;;;;33.97;4.23;;;9.60;99.90;;;;;;5024054;28;20125;-82
2024/01/22 11:31:56;;;;;;;27.60;4.18;;;9.70;99.90;;;;;;5023023;28;20021;-84
2024/01/22 11:34:40;;;;;;;33.97;4.35;;;9.90;99.90;;;;;;5020309;28;20033;-83
2024/01/22 11:37:07;;;;;;;29.70;4.05;;;10.00;99.90;;;;;;5032211;28;20509;-83
2024/01/22 11:39:33;;;;;;;30.00;4.13;;;10.20;99.90;;;;;;5030301;28;20033;-85
2024/01/22 11:42:25;;;;;;;27.75;3.90;;;10.40;99.90;;;;;;5031036;28;20030;-82
2024/01/22 11:44:52;;;;;;;24.55;4.38;;;10.50;99.90;;;;;;5027174;28;20022;-86
2024/01/22 11:47:20;;;;;;;31.70;4.80;;;10.80;99.90;;;;;;5027335;28;20026;-84
2024/01/22 11:49:46;;;;;;;26.63;3.28;;;10.90;99.90;;;;;;5023324;28;20021;-85
2024/01/22 11:52:11;;;;;;;30.33;3.72;;;11.10;99.90;;;;;;5026674;28;20393;-85
2024/01/22 11:54:38;;;;;;;22.25;3.83;;;11.20;99.90;;;;;;5023952;28;20096;-83
2024/01/22 11:57:04;;;;;;;28.77;4.60;;;11.40;99.90;;;;;;5023699;28;20124;-84
2024/01/22 11:59:30;;;;;;;18.50;2.88;;;11.60;99.90;;;;;;5025299;28;20148;-85
2024/01/22 12:02:13;;;;;;;22.05;3.67;;;11.70;99.90;;;;;;5025024;28;20046;-83
2024/01/22 12:04:39;;;;;;;28.55;4.50;;;11.90;99.90;;;;;;5022204;28;20026;-85
2024/01/22 12:07:06;;;;;;;24.90;4.15;;;12.10;99.90;;;;;;5022986;28;20052;-85
2024/01/22 12:09:35;;;;;;;24.05;4.28;;;12.30;99.90;;;;;;5027631;28;20022;-86
2024/01/22 12:12:03;;;;;;;22.30;4.03;;;12.40;99.90;;;;;;5034452;28;20018;-85
2024/01/22 12:14:29;;;;;;;27.35;4.18;;;12.50;99.90;;;;;;5031627;28;20489;-84
2024/01/22 12:17:02;;;;;;;30.48;5.07;;;12.70;99.90;;;;;;5033291;28;20029;-82
2024/01/22 12:19:30;;;;;;;23.50;4.35;;;12.70;99.90;;;;;;5036366;28;20037;-85
2024/01/22 12:21:56;;;;;;;22.13;4.15;;;12.90;99.90;;;;;;5035776;28;20104;-86
2024/01/22 12:24:22;;;;;;;21.17;4.35;;;12.90;99.90;;;;;;5035394;28;20544;-87
2024/01/22 12:26:52;;;;;;;26.52;3.80;;;12.90;99.90;;;;;;5033735;28;20018;-84
2024/01/22 12:29:22;;;;;;;23.52;5.10;;;12.80;99.90;;;;;;5035551;28;20053;-85
2024/01/22 12:31:48;;;;;;;21.63;3.90;;;12.70;99.90;;;;;;5035349;28;20057;-83
2024/01/22 12:34:14;;;;;;;23.60;4.35;;;12.40;99.90;;;;;;5035263;28;20030;-85
2024/01/22 12:36:39;;;;;;;23.33;4.63;;;12.30;99.90;;;;;;5033721;28;20488;-87
2024/01/22 12:39:07;;;;;;;31.23;4.43;;;12.20;99.90;;;;;;5024480;28;20505;-84
2024/01/22 12:41:33;;;;;;;27.58;4.55;;;12.00;99.90;;;;;;5022662;28;20030;-84
2024/01/22 12:43:59;;;;;;;27.48;4.68;;;11.90;99.90;;;;;;5032788;28;20053;-87
2024/01/22 12:46:25;;;;;;;32.58;4.45;;;11.80;99.90;;;;;;5034538;28;20049;-82